createdAt,value
2023-04-18T20:02:26.539Z,49.80
2023-04-18T20:03:30.333Z,50.04
2023-04-18T20:04:34.463Z,49.77
2023-04-18T20:05:38.366Z,49.69
2023-04-18T20:06:42.131Z,50.33
2023-04-18T20:07:45.800Z,49.91
2023-04-18T20:08:49.535Z,49.69
2023-04-18T20:09:54.013Z,50.66
2023-04-18T20:10:57.696Z,50.78
2023-04-18T20:12:01.434Z,49.60
2023-04-18T20:13:05.008Z,49.48
2023-04-18T20:14:08.701Z,49.53
2023-04-18T20:15:13.162Z,49.48
2023-04-18T20:16:16.955Z,49.41
2023-04-18T20:17:20.803Z,50.00
2023-04-18T20:18:26.146Z,49.91
2023-04-18T20:19:29.970Z,50.46
2023-04-18T20:20:33.609Z,50.77
2023-04-18T20:21:37.211Z,50.80
2023-04-18T20:22:40.894Z,51.29
2023-04-18T20:23:44.598Z,50.62
2023-04-18T20:24:48.242Z,50.65
2023-04-18T20:25:51.900Z,50.67
2023-04-18T20:26:55.657Z,51.22
2023-04-18T20:27:59.276Z,51.39
2023-04-18T20:29:03.011Z,50.84
2023-04-18T20:30:07.774Z,50.17
2023-04-18T20:31:12.817Z,50.14
2023-04-18T20:32:16.588Z,50.33
2023-04-18T20:33:20.203Z,50.03
2023-04-18T20:34:25.584Z,50.24
2023-04-18T20:35:29.393Z,50.94
2023-04-18T20:36:33.130Z,49.94
2023-04-18T20:37:36.963Z,50.67
2023-04-18T20:38:40.722Z,50.18
2023-04-18T20:39:44.371Z,50.35
2023-04-18T20:40:48.489Z,50.12
2023-04-18T20:41:52.209Z,50.17
2023-04-18T20:42:56.384Z,50.09
2023-04-18T20:44:00.108Z,50.73
2023-04-18T20:45:03.854Z,50.91
2023-04-18T20:46:07.621Z,50.08
2023-04-18T20:47:12.374Z,50.21
2023-04-18T20:48:17.043Z,51.02
2023-04-18T20:49:20.808Z,50.01
2023-04-18T20:50:26.168Z,49.80
2023-04-18T20:51:29.808Z,49.64
2023-04-18T20:52:33.546Z,49.73
2023-04-18T20:53:37.209Z,49.78
2023-04-18T20:54:40.872Z,49.16
2023-04-18T20:55:44.611Z,49.04
2023-04-18T20:56:48.241Z,49.80
2023-04-18T20:57:51.933Z,49.86
2023-04-18T20:58:55.896Z,49.58
2023-04-18T20:59:59.521Z,48.90
2023-04-18T21:01:03.232Z,49.42
2023-04-18T21:02:08.933Z,49.70
2023-04-18T21:03:14.919Z,48.99
2023-04-18T21:04:19.376Z,49.46
2023-04-18T21:05:23.403Z,49.29
2023-04-18T21:06:28.787Z,50.29
2023-04-18T21:07:32.544Z,50.40
2023-04-18T21:08:36.217Z,50.31
2023-04-18T21:09:39.792Z,49.78
2023-04-18T21:10:43.612Z,49.85
2023-04-18T21:11:47.271Z,50.41
2023-04-18T21:12:50.998Z,49.56
2023-04-18T21:13:54.673Z,49.11
2023-04-18T21:14:58.326Z,49.46
2023-04-18T21:16:02.081Z,49.91
2023-04-18T21:17:05.809Z,49.99
2023-04-18T21:18:09.608Z,50.21
2023-04-18T21:19:13.447Z,49.63
2023-04-18T21:20:17.176Z,50.13
2023-04-18T21:21:20.923Z,49.97
2023-04-18T21:22:26.267Z,49.89
2023-04-18T21:23:29.962Z,49.70
2023-04-18T21:24:33.560Z,50.32
2023-04-18T21:25:37.246Z,50.13
2023-04-18T21:26:40.950Z,50.07
2023-04-18T21:27:44.639Z,50.47
2023-04-18T21:28:56.247Z,50.42
2023-04-18T21:30:00.412Z,49.76
2023-04-18T21:31:04.591Z,50.34
2023-04-18T21:32:08.375Z,50.92
2023-04-18T21:33:12.115Z,50.25
2023-04-18T21:34:16.011Z,50.29
2023-04-18T21:35:21.328Z,50.63
2023-04-18T21:36:28.113Z,51.42
2023-04-18T21:37:33.543Z,51.58
2023-04-18T21:38:37.201Z,51.39
2023-04-18T21:39:40.984Z,51.99
2023-04-18T21:40:44.642Z,51.27
2023-04-18T21:41:48.242Z,50.53
2023-04-18T21:42:52.047Z,50.12
2023-04-18T21:43:55.871Z,50.69
2023-04-18T21:44:59.616Z,51.04
2023-04-18T21:46:03.323Z,50.40
2023-04-18T21:47:07.086Z,50.89
2023-04-18T21:48:10.863Z,51.28
2023-04-18T21:49:14.520Z,50.54
2023-04-18T21:50:18.167Z,50.64
2023-04-18T21:51:21.860Z,50.70
2023-04-18T21:52:25.707Z,50.68
2023-04-18T21:53:31.038Z,50.42
2023-04-18T21:54:34.745Z,50.41
2023-04-18T21:55:38.427Z,50.28
2023-04-18T21:56:42.171Z,49.90
2023-04-18T21:57:45.808Z,49.97
2023-04-18T21:58:50.162Z,49.65
2023-04-18T21:59:53.872Z,49.48
2023-04-18T22:00:58.024Z,49.64
2023-04-18T22:02:01.731Z,50.14
2023-04-18T22:03:05.702Z,50.84
2023-04-18T22:04:09.656Z,51.05
2023-04-18T22:05:13.510Z,50.33
2023-04-18T22:06:17.501Z,50.48
2023-04-18T22:07:21.174Z,50.57
2023-04-18T22:08:25.107Z,50.88
2023-04-18T22:09:30.358Z,50.48
2023-04-18T22:10:34.121Z,49.95
2023-04-18T22:11:37.758Z,49.80
2023-04-18T22:12:41.375Z,49.81
2023-04-18T22:13:45.343Z,50.33
2023-04-18T22:14:49.021Z,50.00
2023-04-18T22:15:52.886Z,50.13
2023-04-18T22:16:56.623Z,50.82
2023-04-18T22:18:00.528Z,50.85
2023-04-18T22:19:04.280Z,51.25
2023-04-18T22:20:09.287Z,51.49
2023-04-18T22:21:12.935Z,51.04
2023-04-18T22:22:16.598Z,51.01
2023-04-18T22:23:20.290Z,50.79
2023-04-18T22:24:24.086Z,50.49
2023-04-18T22:25:29.383Z,50.95
2023-04-18T22:26:33.051Z,51.01
2023-04-18T22:27:36.650Z,50.53
2023-04-18T22:28:40.398Z,50.25
2023-04-18T22:29:44.134Z,49.88
2023-04-18T22:30:47.869Z,50.38
2023-04-18T22:31:51.596Z,50.04
2023-04-18T22:32:55.315Z,49.19
2023-04-18T22:33:59.015Z,50.74
2023-04-18T22:35:02.693Z,50.24
2023-04-18T22:36:06.987Z,50.20
2023-04-18T22:37:10.628Z,50.39
2023-04-18T22:38:14.295Z,50.08
2023-04-18T22:39:18.086Z,49.59
2023-04-18T22:40:22.015Z,50.16
2023-04-18T22:41:27.417Z,50.75
2023-04-18T22:42:32.131Z,49.85
2023-04-18T22:43:36.917Z,50.47
2023-04-18T22:44:40.623Z,50.39
2023-04-18T22:45:46.059Z,50.40
2023-04-18T22:46:49.892Z,51.20
2023-04-18T22:47:53.660Z,51.32
2023-04-18T22:48:57.386Z,51.05
2023-04-18T22:50:01.100Z,50.86
2023-04-18T22:51:04.879Z,50.63
2023-04-18T22:52:08.667Z,49.86
2023-04-18T22:53:12.699Z,50.48
2023-04-18T22:54:16.494Z,51.45
2023-04-18T22:55:20.306Z,51.15
2023-04-18T22:56:24.065Z,50.82
2023-04-18T22:57:29.686Z,50.54
2023-04-18T22:58:33.303Z,50.74
2023-04-18T22:59:37.037Z,50.78
2023-04-18T23:00:40.853Z,50.78
2023-04-18T23:01:44.738Z,50.82
2023-04-18T23:02:48.627Z,50.84
2023-04-18T23:03:53.193Z,51.19
2023-04-18T23:04:58.753Z,50.70
2023-04-18T23:06:22.567Z,50.81
2023-04-18T23:07:26.422Z,50.36
2023-04-18T23:08:30.669Z,50.80
2023-04-18T23:09:35.490Z,50.28
2023-04-18T23:10:42.813Z,50.36
2023-04-18T23:11:46.475Z,50.38
2023-04-18T23:12:53.259Z,50.64
2023-04-18T23:13:57.297Z,50.78
2023-04-18T23:15:01.028Z,50.35
2023-04-18T23:16:05.482Z,50.26
2023-04-18T23:17:09.349Z,49.92
2023-04-18T23:18:13.018Z,50.34
2023-04-18T23:19:16.605Z,50.04
2023-04-18T23:20:20.482Z,50.20
2023-04-18T23:21:24.186Z,50.09
2023-04-18T23:22:27.838Z,49.70
2023-04-18T23:23:31.462Z,50.45
2023-04-18T23:24:35.098Z,50.15
2023-04-18T23:25:38.724Z,50.81
2023-04-18T23:26:42.546Z,50.90
2023-04-18T23:27:46.194Z,50.52
2023-04-18T23:28:51.568Z,51.21
2023-04-18T23:29:55.327Z,50.85
2023-04-18T23:30:59.181Z,51.92
2023-04-18T23:32:02.829Z,51.24
2023-04-18T23:33:06.634Z,52.46
2023-04-18T23:34:11.049Z,52.23
2023-04-18T23:35:14.689Z,51.93
2023-04-18T23:36:18.447Z,51.56
2023-04-18T23:37:22.141Z,51.39
2023-04-18T23:38:25.986Z,50.99
2023-04-18T23:39:29.613Z,50.89
2023-04-18T23:40:33.304Z,51.21
2023-04-18T23:41:37.064Z,50.38
2023-04-18T23:42:40.750Z,51.23
2023-04-18T23:43:44.550Z,50.56
2023-04-18T23:44:50.009Z,51.22
2023-04-18T23:45:53.626Z,50.88
2023-04-18T23:46:57.386Z,51.13
2023-04-18T23:48:01.098Z,50.76
2023-04-18T23:49:04.806Z,50.49
2023-04-18T23:50:09.913Z,50.39
2023-04-18T23:51:13.587Z,50.64
2023-04-18T23:52:17.352Z,51.18
2023-04-18T23:53:21.816Z,50.24
2023-04-18T23:54:27.744Z,50.75
2023-04-18T23:55:31.440Z,50.51
2023-04-18T23:56:35.666Z,50.45
2023-04-18T23:57:39.335Z,50.25
2023-04-18T23:58:43.072Z,49.91
2023-04-18T23:59:48.376Z,50.39
